sensor_id;sensor_type;location;lat;lon;timestamp;pressure;altitude;pressure_sealevel;temperature;humidity
51245;BME280;37840;47.562;18.738;2023-06-04T00:02:19;99989.62;;;15.95;52.05
51245;BME280;37840;47.562;18.738;2023-06-04T00:04:45;99985.41;;;15.92;51.86
51245;BME280;37840;47.562;18.738;2023-06-04T00:07:10;99981.53;;;15.85;52.38
51245;BME280;37840;47.562;18.738;2023-06-04T00:09:36;99981.69;;;15.83;51.19
51245;BME280;37840;47.562;18.738;2023-06-04T00:12:02;99982.25;;;15.77;50.63
51245;BME280;37840;47.562;18.738;2023-06-04T00:14:28;99985.47;;;15.81;50.50
51245;BME280;37840;47.562;18.738;2023-06-04T00:16:54;99986.78;;;15.86;51.52
51245;BME280;37840;47.562;18.738;2023-06-04T00:19:20;99984.94;;;15.87;51.22
51245;BME280;37840;47.562;18.738;2023-06-04T00:21:46;99976.16;;;15.75;49.72
51245;BME280;37840;47.562;18.738;2023-06-04T00:24:12;99975.75;;;15.80;51.53
51245;BME280;37840;47.562;18.738;2023-06-04T00:26:38;99969.56;;;15.79;52.11
51245;BME280;37840;47.562;18.738;2023-06-04T00:29:04;99967.31;;;15.54;51.53
51245;BME280;37840;47.562;18.738;2023-06-04T00:31:30;99963.34;;;15.48;51.58
51245;BME280;37840;47.562;18.738;2023-06-04T00:33:56;99963.34;;;15.48;50.55
51245;BME280;37840;47.562;18.738;2023-06-04T00:36:22;99963.87;;;15.42;49.87
51245;BME280;37840;47.562;18.738;2023-06-04T00:38:48;99962.03;;;15.42;49.71
51245;BME280;37840;47.562;18.738;2023-06-04T00:41:14;99963.87;;;15.42;50.57
51245;BME280;37840;47.562;18.738;2023-06-04T00:43:40;99973.47;;;15.44;51.96
51245;BME280;37840;47.562;18.738;2023-06-04T00:46:06;99960.59;;;15.38;52.56
51245;BME280;37840;47.562;18.738;2023-06-04T00:48:32;99970.37;;;15.39;52.76
51245;BME280;37840;47.562;18.738;2023-06-04T00:50:58;99966.38;;;15.34;53.32
51245;BME280;37840;47.562;18.738;2023-06-04T00:53:25;99969.91;;;15.34;53.13
51245;BME280;37840;47.562;18.738;2023-06-04T00:55:51;99975.25;;;15.34;52.35
51245;BME280;37840;47.562;18.738;2023-06-04T00:58:17;99972.56;;;15.34;52.96
51245;BME280;37840;47.562;18.738;2023-06-04T01:00:46;99967.22;;;15.34;54.17
51245;BME280;37840;47.562;18.738;2023-06-04T01:03:17;99971.00;;;15.22;55.36
51245;BME280;37840;47.562;18.738;2023-06-04T01:08:18;99969.16;;;15.22;56.23
51245;BME280;37840;47.562;18.738;2023-06-04T01:10:54;99965.75;;;15.20;56.01
51245;BME280;37840;47.562;18.738;2023-06-04T01:13:21;99962.25;;;15.20;55.99
51245;BME280;37840;47.562;18.738;2023-06-04T01:15:47;99962.25;;;15.20;55.33
51245;BME280;37840;47.562;18.738;2023-06-04T01:18:15;99966.47;;;15.22;54.52
51245;BME280;37840;47.562;18.738;2023-06-04T01:21:01;99957.78;;;15.30;55.34
51245;BME280;37840;47.562;18.738;2023-06-04T01:26:09;99965.81;;;15.30;53.08
51245;BME280;37840;47.562;18.738;2023-06-04T01:28:36;99964.53;;;15.34;48.74
51245;BME280;37840;47.562;18.738;2023-06-04T01:31:04;99966.56;;;15.42;50.78
51245;BME280;37840;47.562;18.738;2023-06-04T01:33:33;99973.22;;;15.47;50.91
51245;BME280;37840;47.562;18.738;2023-06-04T01:35:59;99970.94;;;15.43;50.72
51245;BME280;37840;47.562;18.738;2023-06-04T01:38:27;99960.78;;;15.37;47.70
51245;BME280;37840;47.562;18.738;2023-06-04T01:40:53;99965.09;;;15.28;47.49
51245;BME280;37840;47.562;18.738;2023-06-04T01:43:22;99963.37;;;15.27;48.45
51245;BME280;37840;47.562;18.738;2023-06-04T01:45:49;99961.84;;;15.34;49.19
51245;BME280;37840;47.562;18.738;2023-06-04T01:48:15;99968.81;;;15.37;51.73
51245;BME280;37840;47.562;18.738;2023-06-04T01:50:41;99973.34;;;15.46;53.33
51245;BME280;37840;47.562;18.738;2023-06-04T01:53:07;99974.34;;;15.45;53.71
51245;BME280;37840;47.562;18.738;2023-06-04T01:55:33;99970.25;;;15.41;52.92
51245;BME280;37840;47.562;18.738;2023-06-04T01:58:00;99970.66;;;15.46;53.25
51245;BME280;37840;47.562;18.738;2023-06-04T02:00:26;99972.19;;;15.39;51.88
51245;BME280;37840;47.562;18.738;2023-06-04T02:02:52;99969.38;;;15.40;50.40
51245;BME280;37840;47.562;18.738;2023-06-04T02:05:21;99973.16;;;15.38;51.45
51245;BME280;37840;47.562;18.738;2023-06-04T02:07:47;99979.38;;;15.38;53.23
51245;BME280;37840;47.562;18.738;2023-06-04T02:10:17;99984.00;;;15.36;53.99
51245;BME280;37840;47.562;18.738;2023-06-04T02:12:59;99977.22;;;15.32;53.96
51245;BME280;37840;47.562;18.738;2023-06-04T02:15:27;99978.50;;;15.28;53.77
51245;BME280;37840;47.562;18.738;2023-06-04T02:17:55;99981.62;;;15.33;53.62
51245;BME280;37840;47.562;18.738;2023-06-04T02:20:24;99980.31;;;15.27;54.31
51245;BME280;37840;47.562;18.738;2023-06-04T02:22:49;99978.06;;;15.02;57.29
51245;BME280;37840;47.562;18.738;2023-06-04T02:25:15;99975.25;;;14.82;56.60
51245;BME280;37840;47.562;18.738;2023-06-04T02:27:42;99977.50;;;14.77;56.31
51245;BME280;37840;47.562;18.738;2023-06-04T02:30:08;99969.78;;;14.84;56.43
51245;BME280;37840;47.562;18.738;2023-06-04T02:32:34;99970.69;;;14.73;57.27
51245;BME280;37840;47.562;18.738;2023-06-04T02:35:02;99974.66;;;14.79;57.33
51245;BME280;37840;47.562;18.738;2023-06-04T02:37:28;99972.19;;;14.66;56.70
51245;BME280;37840;47.562;18.738;2023-06-04T02:39:55;99978.03;;;14.60;56.92
51245;BME280;37840;47.562;18.738;2023-06-04T02:42:21;99977.19;;;14.59;57.68
51245;BME280;37840;47.562;18.738;2023-06-04T02:44:47;99977.19;;;14.27;58.89
51245;BME280;37840;47.562;18.738;2023-06-04T02:47:13;99978.37;;;14.34;58.50
51245;BME280;37840;47.562;18.738;2023-06-04T02:49:39;99987.38;;;14.33;57.59
51245;BME280;37840;47.562;18.738;2023-06-04T02:52:05;99982.88;;;14.34;57.78
51245;BME280;37840;47.562;18.738;2023-06-04T02:54:31;99982.28;;;14.30;58.20
51245;BME280;37840;47.562;18.738;2023-06-04T02:56:57;99977.06;;;14.28;59.14
51245;BME280;37840;47.562;18.738;2023-06-04T02:59:23;99976.22;;;14.28;58.74
51245;BME280;37840;47.562;18.738;2023-06-04T03:01:49;99975.84;;;14.21;57.67
51245;BME280;37840;47.562;18.738;2023-06-04T03:04:15;99975.41;;;14.16;57.70
51245;BME280;37840;47.562;18.738;2023-06-04T03:06:41;99969.94;;;14.18;57.29
51245;BME280;37840;47.562;18.738;2023-06-04T03:09:11;99977.97;;;14.18;56.97
51245;BME280;37840;47.562;18.738;2023-06-04T03:11:38;99972.47;;;14.19;56.99
51245;BME280;37840;47.562;18.738;2023-06-04T03:14:04;99970.37;;;14.23;57.29
51245;BME280;37840;47.562;18.738;2023-06-04T03:16:30;99969.44;;;14.13;57.87
51245;BME280;37840;47.562;18.738;2023-06-04T03:18:56;99983.63;;;13.92;59.02
51245;BME280;37840;47.562;18.738;2023-06-04T03:21:22;99984.31;;;14.05;59.11
51245;BME280;37840;47.562;18.738;2023-06-04T03:23:50;99976.03;;;14.08;58.45
51245;BME280;37840;47.562;18.738;2023-06-04T03:26:16;99975.91;;;14.10;58.59
51245;BME280;37840;47.562;18.738;2023-06-04T03:28:42;99985.09;;;14.17;59.97
51245;BME280;37840;47.562;18.738;2023-06-04T03:31:08;99985.25;;;14.16;58.90
51245;BME280;37840;47.562;18.738;2023-06-04T03:33:34;99994.25;;;14.15;57.75
51245;BME280;37840;47.562;18.738;2023-06-04T03:36:00;99989.28;;;14.10;61.03
51245;BME280;37840;47.562;18.738;2023-06-04T03:38:26;99997.06;;;14.13;61.46
51245;BME280;37840;47.562;18.738;2023-06-04T03:40:52;99996.78;;;14.16;61.38
51245;BME280;37840;47.562;18.738;2023-06-04T03:43:21;99998.03;;;14.12;62.76
51245;BME280;37840;47.562;18.738;2023-06-04T03:45:47;99997.06;;;14.02;62.46
51245;BME280;37840;47.562;18.738;2023-06-04T03:48:13;99992.56;;;14.02;63.24
51245;BME280;37840;47.562;18.738;2023-06-04T03:50:39;100004.81;;;14.16;62.91
51245;BME280;37840;47.562;18.738;2023-06-04T03:53:05;100002.38;;;14.24;62.54
51245;BME280;37840;47.562;18.738;2023-06-04T03:55:32;100006.09;;;14.33;60.84
51245;BME280;37840;47.562;18.738;2023-06-04T03:57:58;100008.66;;;14.35;60.53
51245;BME280;37840;47.562;18.738;2023-06-04T04:00:24;100017.53;;;14.35;59.60
51245;BME280;37840;47.562;18.738;2023-06-04T04:02:50;100023.94;;;14.44;58.88
51245;BME280;37840;47.562;18.738;2023-06-04T04:05:16;100020.53;;;14.42;57.89
51245;BME280;37840;47.562;18.738;2023-06-04T04:07:42;100019.44;;;14.56;59.08
51245;BME280;37840;47.562;18.738;2023-06-04T04:10:09;100021.84;;;14.59;59.15
51245;BME280;37840;47.562;18.738;2023-06-04T04:12:35;100024.41;;;14.60;61.34
51245;BME280;37840;47.562;18.738;2023-06-04T04:15:01;100025.38;;;14.59;61.40
51245;BME280;37840;47.562;18.738;2023-06-04T04:17:27;100027.16;;;14.70;61.80
51245;BME280;37840;47.562;18.738;2023-06-04T04:19:53;100020.44;;;14.76;62.05
51245;BME280;37840;47.562;18.738;2023-06-04T04:22:19;100027.69;;;14.85;61.70
51245;BME280;37840;47.562;18.738;2023-06-04T04:24:46;100027.66;;;14.96;60.98
51245;BME280;37840;47.562;18.738;2023-06-04T04:27:12;100022.22;;;15.07;57.04
51245;BME280;37840;47.562;18.738;2023-06-04T04:29:38;100022.41;;;15.16;56.15
51245;BME280;37840;47.562;18.738;2023-06-04T04:32:04;100021.75;;;15.23;57.66
51245;BME280;37840;47.562;18.738;2023-06-04T04:34:50;100025.12;;;15.25;59.66
51245;BME280;37840;47.562;18.738;2023-06-04T04:37:21;100031.38;;;15.26;61.01
51245;BME280;37840;47.562;18.738;2023-06-04T04:39:48;100036.56;;;15.27;61.68
51245;BME280;37840;47.562;18.738;2023-06-04T04:42:18;100034.28;;;15.23;62.72
51245;BME280;37840;47.562;18.738;2023-06-04T04:44:44;100036.38;;;15.19;62.11
51245;BME280;37840;47.562;18.738;2023-06-04T04:47:15;100032.28;;;15.15;60.67
51245;BME280;37840;47.562;18.738;2023-06-04T04:49:41;100030.69;;;15.13;58.37
51245;BME280;37840;47.562;18.738;2023-06-04T04:52:07;100032.41;;;15.14;59.16
51245;BME280;37840;47.562;18.738;2023-06-04T04:54:33;100029.41;;;15.07;59.92
51245;BME280;37840;47.562;18.738;2023-06-04T04:56:59;100032.81;;;15.09;60.29
51245;BME280;37840;47.562;18.738;2023-06-04T04:59:25;100039.53;;;15.24;61.30
51245;BME280;37840;47.562;18.738;2023-06-04T05:01:51;100035.06;;;15.35;60.84
51245;BME280;37840;47.562;18.738;2023-06-04T05:04:17;100047.16;;;15.29;60.83
51245;BME280;37840;47.562;18.738;2023-06-04T05:06:43;100040.44;;;15.14;60.21
51245;BME280;37840;47.562;18.738;2023-06-04T05:09:09;100040.84;;;15.09;60.74
51245;BME280;37840;47.562;18.738;2023-06-04T05:11:35;100045.81;;;15.14;61.08
51245;BME280;37840;47.562;18.738;2023-06-04T05:14:01;100049.53;;;15.22;61.73
51245;BME280;37840;47.562;18.738;2023-06-04T05:16:27;100047.81;;;15.21;61.21
51245;BME280;37840;47.562;18.738;2023-06-04T05:18:53;100046.75;;;15.34;61.24
51245;BME280;37840;47.562;18.738;2023-06-04T05:21:22;100038.72;;;15.34;61.84
51245;BME280;37840;47.562;18.738;2023-06-04T05:23:48;100050.34;;;15.44;61.21
51245;BME280;37840;47.562;18.738;2023-06-04T05:26:14;100036.66;;;15.47;61.10
51245;BME280;37840;47.562;18.738;2023-06-04T05:28:41;100050.47;;;15.42;59.89
51245;BME280;37840;47.562;18.738;2023-06-04T05:31:09;100049.91;;;15.39;59.73
51245;BME280;37840;47.562;18.738;2023-06-04T05:33:38;100051.72;;;15.38;58.76
51245;BME280;37840;47.562;18.738;2023-06-04T05:36:04;100045.72;;;15.46;57.26
51245;BME280;37840;47.562;18.738;2023-06-04T05:38:30;100050.31;;;15.65;60.01
51245;BME280;37840;47.562;18.738;2023-06-04T05:40:56;100048.94;;;15.70;59.48
51245;BME280;37840;47.562;18.738;2023-06-04T05:43:22;100049.31;;;15.66;59.91
51245;BME280;37840;47.562;18.738;2023-06-04T05:45:48;100044.25;;;15.63;58.16
51245;BME280;37840;47.562;18.738;2023-06-04T05:48:15;100048.41;;;15.77;56.98
51245;BME280;37840;47.562;18.738;2023-06-04T05:50:41;100046.50;;;15.88;56.67
51245;BME280;37840;47.562;18.738;2023-06-04T05:53:07;100053.41;;;15.91;56.49
51245;BME280;37840;47.562;18.738;2023-06-04T05:55:33;100058.22;;;15.97;56.60
51245;BME280;37840;47.562;18.738;2023-06-04T05:57:59;100060.91;;;15.87;54.46
51245;BME280;37840;47.562;18.738;2023-06-04T06:00:25;100058.91;;;15.89;52.95
51245;BME280;37840;47.562;18.738;2023-06-04T06:02:51;100065.16;;;16.00;54.12
51245;BME280;37840;47.562;18.738;2023-06-04T06:05:19;100070.09;;;16.04;54.99
51245;BME280;37840;47.562;18.738;2023-06-04T06:07:45;100075.75;;;16.01;57.88
51245;BME280;37840;47.562;18.738;2023-06-04T06:10:12;100070.56;;;16.09;56.81
51245;BME280;37840;47.562;18.738;2023-06-04T06:12:39;100075.81;;;16.21;54.63
51245;BME280;37840;47.562;18.738;2023-06-04T06:15:05;100076.09;;;16.27;55.18
51245;BME280;37840;47.562;18.738;2023-06-04T06:17:32;100076.97;;;16.28;55.26
51245;BME280;37840;47.562;18.738;2023-06-04T06:19:58;100078.78;;;16.27;54.87
51245;BME280;37840;47.562;18.738;2023-06-04T06:22:25;100079.94;;;16.44;54.08
51245;BME280;37840;47.562;18.738;2023-06-04T06:24:51;100076.16;;;16.47;54.96
51245;BME280;37840;47.562;18.738;2023-06-04T06:27:17;100083.50;;;16.55;55.01
51245;BME280;37840;47.562;18.738;2023-06-04T06:29:43;100072.91;;;16.53;53.35
51245;BME280;37840;47.562;18.738;2023-06-04T06:32:12;100080.66;;;16.46;55.13
51245;BME280;37840;47.562;18.738;2023-06-04T06:34:38;100079.25;;;16.42;54.11
51245;BME280;37840;47.562;18.738;2023-06-04T06:37:06;100089.97;;;16.42;53.57
51245;BME280;37840;47.562;18.738;2023-06-04T06:39:32;100090.56;;;16.46;52.44
51245;BME280;37840;47.562;18.738;2023-06-04T06:41:58;100098.03;;;16.42;54.61
51245;BME280;37840;47.562;18.738;2023-06-04T06:44:24;100101.28;;;16.46;54.96
51245;BME280;37840;47.562;18.738;2023-06-04T06:46:50;100103.56;;;16.50;52.87
51245;BME280;37840;47.562;18.738;2023-06-04T06:49:16;100102.47;;;16.63;51.45
51245;BME280;37840;47.562;18.738;2023-06-04T06:51:42;100101.91;;;16.69;53.68
51245;BME280;37840;47.562;18.738;2023-06-04T06:54:09;100106.81;;;16.64;51.43
51245;BME280;37840;47.562;18.738;2023-06-04T06:56:35;100117.31;;;16.67;51.23
51245;BME280;37840;47.562;18.738;2023-06-04T06:59:01;100115.88;;;16.63;52.86
51245;BME280;37840;47.562;18.738;2023-06-04T07:01:27;100108.41;;;16.66;53.39
51245;BME280;37840;47.562;18.738;2023-06-04T07:03:53;100114.03;;;16.63;52.55
51245;BME280;37840;47.562;18.738;2023-06-04T07:06:19;100121.69;;;16.58;51.25
51245;BME280;37840;47.562;18.738;2023-06-04T07:08:45;100124.22;;;16.60;50.57
51245;BME280;37840;47.562;18.738;2023-06-04T07:11:13;100126.66;;;16.73;50.50
51245;BME280;37840;47.562;18.738;2023-06-04T07:13:39;100126.53;;;16.94;50.16
51245;BME280;37840;47.562;18.738;2023-06-04T07:16:06;100126.25;;;17.06;48.37
51245;BME280;37840;47.562;18.738;2023-06-04T07:18:32;100126.13;;;17.08;45.97
51245;BME280;37840;47.562;18.738;2023-06-04T07:20:58;100123.16;;;17.11;48.08
51245;BME280;37840;47.562;18.738;2023-06-04T07:23:24;100124.72;;;17.14;48.04
51245;BME280;37840;47.562;18.738;2023-06-04T07:25:51;100127.84;;;17.09;48.82
51245;BME280;37840;47.562;18.738;2023-06-04T07:28:17;100121.19;;;17.03;48.47
51245;BME280;37840;47.562;18.738;2023-06-04T07:30:45;100121.03;;;17.24;47.10
51245;BME280;37840;47.562;18.738;2023-06-04T07:33:11;100123.28;;;17.29;46.46
51245;BME280;37840;47.562;18.738;2023-06-04T07:35:37;100124.59;;;17.15;47.41
51245;BME280;37840;47.562;18.738;2023-06-04T07:38:03;100125.44;;;17.16;48.11
51245;BME280;37840;47.562;18.738;2023-06-04T07:40:29;100121.72;;;17.17;48.49
51245;BME280;37840;47.562;18.738;2023-06-04T07:42:55;100122.31;;;17.20;47.72
51245;BME280;37840;47.562;18.738;2023-06-04T07:45:21;100113.66;;;17.17;46.65
51245;BME280;37840;47.562;18.738;2023-06-04T07:47:47;100119.75;;;17.28;47.28
51245;BME280;37840;47.562;18.738;2023-06-04T07:50:13;100126.69;;;17.41;48.73
51245;BME280;37840;47.562;18.738;2023-06-04T07:52:39;100128.78;;;17.37;48.84
51245;BME280;37840;47.562;18.738;2023-06-04T07:55:05;100130.91;;;17.43;46.56
51245;BME280;37840;47.562;18.738;2023-06-04T07:57:31;100125.09;;;17.38;48.79
51245;BME280;37840;47.562;18.738;2023-06-04T07:59:57;100127.66;;;17.40;47.27
51245;BME280;37840;47.562;18.738;2023-06-04T08:02:25;100129.94;;;17.35;49.20
51245;BME280;37840;47.562;18.738;2023-06-04T08:04:51;100130.06;;;17.43;49.42
51245;BME280;37840;47.562;18.738;2023-06-04T08:07:18;100135.16;;;17.46;49.20
51245;BME280;37840;47.562;18.738;2023-06-04T08:09:44;100127.97;;;17.37;46.97
51245;BME280;37840;47.562;18.738;2023-06-04T08:12:11;100131.47;;;17.37;49.50
51245;BME280;37840;47.562;18.738;2023-06-04T08:14:37;100132.06;;;17.41;49.14
51245;BME280;37840;47.562;18.738;2023-06-04T08:17:03;100128.63;;;17.48;49.54
51245;BME280;37840;47.562;18.738;2023-06-04T08:19:29;100132.72;;;17.62;47.63
51245;BME280;37840;47.562;18.738;2023-06-04T08:21:55;100126.19;;;17.65;49.31
51245;BME280;37840;47.562;18.738;2023-06-04T08:24:21;100134.41;;;17.63;48.32
51245;BME280;37840;47.562;18.738;2023-06-04T08:26:47;100129.75;;;17.56;46.85
51245;BME280;37840;47.562;18.738;2023-06-04T08:29:14;100128.06;;;17.55;47.41
51245;BME280;37840;47.562;18.738;2023-06-04T08:31:40;100130.16;;;17.70;47.56
51245;BME280;37840;47.562;18.738;2023-06-04T08:34:06;100136.94;;;17.75;49.16
51245;BME280;37840;47.562;18.738;2023-06-04T08:36:32;100137.94;;;17.83;47.29
51245;BME280;37840;47.562;18.738;2023-06-04T08:38:58;100138.19;;;17.90;48.11
51245;BME280;37840;47.562;18.738;2023-06-04T08:41:28;100139.72;;;18.02;47.96
51245;BME280;37840;47.562;18.738;2023-06-04T08:43:56;100142.94;;;18.06;45.99
51245;BME280;37840;47.562;18.738;2023-06-04T08:46:23;100139.28;;;17.97;45.92
51245;BME280;37840;47.562;18.738;2023-06-04T08:48:50;100137.34;;;17.89;48.25
51245;BME280;37840;47.562;18.738;2023-06-04T08:51:16;100139.59;;;17.94;48.66
51245;BME280;37840;47.562;18.738;2023-06-04T08:53:42;100147.41;;;17.87;49.17
51245;BME280;37840;47.562;18.738;2023-06-04T08:56:27;100139.34;;;17.87;50.92
51245;BME280;37840;47.562;18.738;2023-06-04T08:59:09;100141.59;;;17.92;50.02
51245;BME280;37840;47.562;18.738;2023-06-04T09:01:36;100148.22;;;17.98;48.16
51245;BME280;37840;47.562;18.738;2023-06-04T09:04:06;100145.34;;;18.09;48.21
51245;BME280;37840;47.562;18.738;2023-06-04T09:06:33;100145.87;;;18.12;48.51
51245;BME280;37840;47.562;18.738;2023-06-04T09:09:03;100152.03;;;18.05;48.83
51245;BME280;37840;47.562;18.738;2023-06-04T09:11:36;100148.19;;;18.07;47.75
51245;BME280;37840;47.562;18.738;2023-06-04T09:14:11;100147.59;;;18.13;49.01
51245;BME280;37840;47.562;18.738;2023-06-04T09:16:47;100142.84;;;18.25;48.86
51245;BME280;37840;47.562;18.738;2023-06-04T09:19:14;100155.37;;;18.44;53.17
51245;BME280;37840;47.562;18.738;2023-06-04T09:21:57;100147.03;;;18.65;46.70
51245;BME280;37840;47.562;18.738;2023-06-04T09:24:25;100147.09;;;18.83;49.71
51245;BME280;37840;47.562;18.738;2023-06-04T09:27:14;100143.16;;;18.95;52.24
51245;BME280;37840;47.562;18.738;2023-06-04T09:32:24;100132.91;;;19.35;47.10
51245;BME280;37840;47.562;18.738;2023-06-04T09:34:50;100136.47;;;19.18;48.17
51245;BME280;37840;47.562;18.738;2023-06-04T09:37:19;100131.78;;;19.20;47.64
51245;BME280;37840;47.562;18.738;2023-06-04T09:39:57;100123.59;;;19.29;47.32
51245;BME280;37840;47.562;18.738;2023-06-04T09:42:23;100130.75;;;19.21;49.85
51245;BME280;37840;47.562;18.738;2023-06-04T09:44:49;100129.84;;;19.12;48.84
51245;BME280;37840;47.562;18.738;2023-06-04T09:47:16;100136.25;;;19.11;50.95
51245;BME280;37840;47.562;18.738;2023-06-04T09:49:46;100137.78;;;19.13;47.17
51245;BME280;37840;47.562;18.738;2023-06-04T09:52:13;100142.03;;;19.16;49.41
51245;BME280;37840;47.562;18.738;2023-06-04T09:54:40;100149.56;;;19.12;48.05
51245;BME280;37840;47.562;18.738;2023-06-04T09:57:18;100137.06;;;19.29;46.49
51245;BME280;37840;47.562;18.738;2023-06-04T09:59:46;100140.44;;;19.49;47.53
51245;BME280;37840;47.562;18.738;2023-06-04T10:02:20;100150.69;;;19.64;48.02
51245;BME280;37840;47.562;18.738;2023-06-04T10:04:54;100148.66;;;19.66;46.13
51245;BME280;37840;47.562;18.738;2023-06-04T10:07:23;100143.97;;;19.68;46.13
51245;BME280;37840;47.562;18.738;2023-06-04T10:09:50;100143.94;;;19.86;42.03
51245;BME280;37840;47.562;18.738;2023-06-04T10:12:26;100155.41;;;19.88;47.46
51245;BME280;37840;47.562;18.738;2023-06-04T10:14:57;100156.72;;;19.84;44.81
51245;BME280;37840;47.562;18.738;2023-06-04T10:17:25;100145.59;;;19.87;44.16
51245;BME280;37840;47.562;18.738;2023-06-04T10:19:54;100148.91;;;19.99;43.35
51245;BME280;37840;47.562;18.738;2023-06-04T10:22:21;100146.09;;;20.08;43.54
51245;BME280;37840;47.562;18.738;2023-06-04T10:24:48;100147.09;;;20.50;44.31
51245;BME280;37840;47.562;18.738;2023-06-04T10:27:16;100143.78;;;20.22;43.94
51245;BME280;37840;47.562;18.738;2023-06-04T10:29:43;100137.56;;;20.29;41.06
51245;BME280;37840;47.562;18.738;2023-06-04T10:32:10;100144.44;;;20.15;40.24
51245;BME280;37840;47.562;18.738;2023-06-04T10:34:36;100146.56;;;20.04;41.24
51245;BME280;37840;47.562;18.738;2023-06-04T10:37:03;100149.19;;;19.87;39.62
51245;BME280;37840;47.562;18.738;2023-06-04T10:39:30;100151.97;;;19.78;42.52
51245;BME280;37840;47.562;18.738;2023-06-04T10:42:03;100148.81;;;19.64;43.21
51245;BME280;37840;47.562;18.738;2023-06-04T10:44:31;100159.00;;;19.70;44.05
51245;BME280;37840;47.562;18.738;2023-06-04T10:46:58;100150.84;;;19.88;42.82
51245;BME280;37840;47.562;18.738;2023-06-04T10:49:28;100156.44;;;19.69;43.19
51245;BME280;37840;47.562;18.738;2023-06-04T10:51:54;100154.94;;;19.48;47.67
51245;BME280;37840;47.562;18.738;2023-06-04T10:54:28;100155.72;;;19.41;44.43
51245;BME280;37840;47.562;18.738;2023-06-04T10:56:55;100148.72;;;19.30;47.26
51245;BME280;37840;47.562;18.738;2023-06-04T10:59:21;100155.44;;;19.26;47.99
51245;BME280;37840;47.562;18.738;2023-06-04T11:01:49;100152.09;;;19.14;43.99
51245;BME280;37840;47.562;18.738;2023-06-04T11:06:46;100153.50;;;19.00;47.95
51245;BME280;37840;47.562;18.738;2023-06-04T11:09:14;100157.50;;;18.96;48.75
51245;BME280;37840;47.562;18.738;2023-06-04T11:11:42;100158.13;;;18.90;47.39
51245;BME280;37840;47.562;18.738;2023-06-04T11:14:10;100157.47;;;18.78;44.42
51245;BME280;37840;47.562;18.738;2023-06-04T11:16:37;100167.00;;;19.00;46.54
51245;BME280;37840;47.562;18.738;2023-06-04T11:19:03;100163.75;;;18.97;47.56
51245;BME280;37840;47.562;18.738;2023-06-04T11:21:29;100160.28;;;19.04;48.03
51245;BME280;37840;47.562;18.738;2023-06-04T11:23:59;100158.34;;;19.14;47.33
51245;BME280;37840;47.562;18.738;2023-06-04T11:26:32;100156.03;;;19.20;45.56
51245;BME280;37840;47.562;18.738;2023-06-04T11:29:00;100159.13;;;19.25;45.99
51245;BME280;37840;47.562;18.738;2023-06-04T11:31:26;100156.03;;;19.20;45.28
51245;BME280;37840;47.562;18.738;2023-06-04T11:33:53;100155.44;;;19.26;45.48
51245;BME280;37840;47.562;18.738;2023-06-04T11:38:58;100155.72;;;19.23;44.52
51245;BME280;37840;47.562;18.738;2023-06-04T11:41:29;100146.47;;;19.25;44.26
51245;BME280;37840;47.562;18.738;2023-06-04T11:43:56;100146.41;;;19.35;44.28
51245;BME280;37840;47.562;18.738;2023-06-04T11:46:23;100153.25;;;19.47;44.77
51245;BME280;37840;47.562;18.738;2023-06-04T11:48:53;100162.59;;;19.61;43.92
51245;BME280;37840;47.562;18.738;2023-06-04T11:51:20;100159.00;;;19.52;42.27
51245;BME280;37840;47.562;18.738;2023-06-04T11:53:47;100155.53;;;19.60;43.09
51245;BME280;37840;47.562;18.738;2023-06-04T11:56:14;100160.13;;;19.86;45.57
51245;BME280;37840;47.562;18.738;2023-06-04T11:58:40;100159.91;;;19.79;47.39
51245;BME280;37840;47.562;18.738;2023-06-04T12:01:07;100163.09;;;19.74;44.83
51245;BME280;37840;47.562;18.738;2023-06-04T12:03:41;100155.84;;;19.75;45.70
51245;BME280;37840;47.562;18.738;2023-06-04T12:06:18;100154.78;;;19.94;43.15
51245;BME280;37840;47.562;18.738;2023-06-04T12:08:51;100157.53;;;20.02;41.93
51245;BME280;37840;47.562;18.738;2023-06-04T12:11:34;100160.19;;;19.94;40.59
51245;BME280;37840;47.562;18.738;2023-06-04T12:14:15;100153.56;;;19.88;41.72
51245;BME280;37840;47.562;18.738;2023-06-04T12:16:41;100152.19;;;19.84;42.15
51245;BME280;37840;47.562;18.738;2023-06-04T12:19:09;100152.78;;;19.96;43.10
51245;BME280;37840;47.562;18.738;2023-06-04T12:21:36;100150.47;;;20.09;42.68
51245;BME280;37840;47.562;18.738;2023-06-04T12:24:09;100155.91;;;20.17;43.39
51245;BME280;37840;47.562;18.738;2023-06-04T12:26:36;100141.44;;;20.27;38.44
51245;BME280;37840;47.562;18.738;2023-06-04T12:29:21;100143.81;;;20.30;41.57
51245;BME280;37840;47.562;18.738;2023-06-04T12:31:47;100141.81;;;20.32;43.36
51245;BME280;37840;47.562;18.738;2023-06-04T12:34:13;100148.00;;;20.24;43.88
51245;BME280;37840;47.562;18.738;2023-06-04T12:36:39;100141.63;;;20.25;44.64
51245;BME280;37840;47.562;18.738;2023-06-04T12:39:06;100138.25;;;20.31;44.08
51245;BME280;37840;47.562;18.738;2023-06-04T12:41:33;100143.88;;;20.38;44.61
51245;BME280;37840;47.562;18.738;2023-06-04T12:44:00;100144.56;;;20.40;46.00
51245;BME280;37840;47.562;18.738;2023-06-04T12:46:26;100141.47;;;20.35;48.31
51245;BME280;37840;47.562;18.738;2023-06-04T12:48:53;100147.03;;;20.25;50.87
51245;BME280;37840;47.562;18.738;2023-06-04T12:51:20;100144.44;;;20.15;50.47
51245;BME280;37840;47.562;18.738;2023-06-04T12:53:47;100142.37;;;20.09;53.18
51245;BME280;37840;47.562;18.738;2023-06-04T12:56:13;100139.28;;;19.96;53.91
51245;BME280;37840;47.562;18.738;2023-06-04T12:58:39;100139.56;;;19.93;54.19